Saint-Andre, Canada
Current Conditions -  °F | °C
As of 11:53 PM on Sunday 19 Oct 2014 (Local Time) from KFVE Reporting Station
Scattered Clouds Scattered Clouds  
Wind Chill: 23°   Ceiling: Unl
Heat Index: 33°   Visibility: 10mi
Dew Point: 27°   Wind: 14mph
Humidity: 78%   Direction: 300°WNW
Pressure: 29.7"   Gusts: NA
Location:  47.67°N, 69.73°W
Report Text: KFVE 200353Z AUTO 30012KT 10SM FEW024 SCT049 01/M03 A2970 RMK AO2 SLP066 T00061028
Loading
Personal Weather Stations






























Interactive Weather Map
Tropical Storm Tracking
New forecast layout! Learn more

10-Day Weather Forecast

Advertisements
Track Severe Weather on mobile